createdAt,value
2022-10-16T00:09:58.638Z,13.75
2022-10-16T00:12:29.610Z,16.42
2022-10-16T00:15:00.287Z,15.73
2022-10-16T00:17:31.551Z,13.48
2022-10-16T00:20:02.346Z,14.23
2022-10-16T00:22:33.505Z,15.93
2022-10-16T00:27:35.034Z,14.13
2022-10-16T00:30:06.914Z,13.45
2022-10-16T00:32:37.712Z,15.00
2022-10-16T00:35:08.928Z,13.73
2022-10-16T00:37:39.756Z,15.80
2022-10-16T00:40:10.817Z,22.03
2022-10-16T00:42:42.672Z,16.05
2022-10-16T00:45:14.153Z,15.70
2022-10-16T00:50:28.276Z,15.40
2022-10-16T00:53:00.413Z,13.52
2022-10-16T00:55:35.007Z,14.73
2022-10-16T00:58:07.280Z,16.85
2022-10-16T01:00:38.021Z,17.17
2022-10-16T01:03:34.371Z,15.97
2022-10-16T01:06:37.279Z,16.08
2022-10-16T01:09:27.894Z,15.98
2022-10-16T01:12:14.486Z,15.87
2022-10-16T01:15:08.767Z,14.20
2022-10-16T01:17:43.109Z,16.08
2022-10-16T01:20:27.879Z,19.90
2022-10-16T01:23:09.214Z,18.38
2022-10-16T01:28:36.646Z,15.48
2022-10-16T01:31:08.191Z,16.85
2022-10-16T01:33:49.851Z,16.13
2022-10-16T01:38:58.652Z,17.13
2022-10-16T01:41:37.764Z,16.38
2022-10-16T01:44:23.455Z,17.08
2022-10-16T01:46:56.074Z,21.00
2022-10-16T01:49:32.783Z,21.50
2022-10-16T01:52:07.423Z,18.88
2022-10-16T01:54:41.387Z,15.65
2022-10-16T01:57:16.797Z,16.85
2022-10-16T01:59:53.192Z,16.00
2022-10-16T02:02:27.019Z,17.90
2022-10-16T02:05:13.737Z,16.80
2022-10-16T02:07:47.586Z,24.92
2022-10-16T02:10:18.851Z,22.30
2022-10-16T02:13:00.412Z,18.08
2022-10-16T02:18:01.734Z,19.40
2022-10-16T02:20:40.981Z,17.03
2022-10-16T02:23:19.930Z,17.98
2022-10-16T02:25:54.134Z,19.77
2022-10-16T02:28:33.614Z,16.55
2022-10-16T02:31:08.924Z,19.42
2022-10-16T02:33:43.772Z,15.77
2022-10-16T02:36:15.001Z,19.33
2022-10-16T02:38:45.972Z,17.98
2022-10-16T02:41:18.388Z,19.17
2022-10-16T02:43:49.174Z,17.00
2022-10-16T02:46:21.679Z,17.30
2022-10-16T02:48:52.697Z,16.77
2022-10-16T02:51:23.498Z,18.75
2022-10-16T02:53:54.168Z,16.90
2022-10-16T02:56:25.336Z,17.13
2022-10-16T02:58:56.075Z,18.27
2022-10-16T03:01:29.198Z,16.43
2022-10-16T03:03:59.996Z,19.77
2022-10-16T03:06:30.806Z,15.90
2022-10-16T03:09:01.894Z,18.80
2022-10-16T03:11:32.783Z,15.60
2022-10-16T03:14:03.731Z,17.52
2022-10-16T03:16:34.519Z,18.48
2022-10-16T03:19:05.429Z,17.67
2022-10-16T03:21:36.303Z,26.92
2022-10-16T03:24:07.346Z,24.77
2022-10-16T03:26:38.017Z,20.58
2022-10-16T03:29:09.035Z,19.40
2022-10-16T03:31:39.884Z,18.48
2022-10-16T03:34:10.863Z,16.27
2022-10-16T03:36:42.020Z,17.08
2022-10-16T03:39:12.899Z,16.85
2022-10-16T03:41:43.995Z,15.40
2022-10-16T03:44:14.897Z,15.65
2022-10-16T03:46:46.041Z,16.35
2022-10-16T03:49:16.783Z,21.98
2022-10-16T03:51:47.539Z,16.63
2022-10-16T03:54:18.551Z,11.50
2022-10-16T03:56:49.685Z,10.57
2022-10-16T03:59:20.721Z,10.20
2022-10-16T04:01:51.471Z,9.85
2022-10-16T04:04:22.791Z,10.18
2022-10-16T04:09:23.789Z,11.70
2022-10-16T04:11:54.536Z,12.10
2022-10-16T04:14:25.110Z,11.70
2022-10-16T04:16:55.831Z,12.03
2022-10-16T04:19:26.603Z,11.73
2022-10-16T04:21:58.571Z,12.55
2022-10-16T04:24:29.464Z,12.68
2022-10-16T04:27:00.464Z,13.80
2022-10-16T04:29:31.932Z,11.23
2022-10-16T04:32:02.838Z,11.55
2022-10-16T04:34:33.689Z,11.40
2022-10-16T04:37:04.468Z,12.33
2022-10-16T04:39:35.444Z,13.75
2022-10-16T04:42:06.560Z,13.52
2022-10-16T04:44:37.256Z,16.67
2022-10-16T04:47:08.422Z,15.03
2022-10-16T04:49:39.176Z,14.27
2022-10-16T04:52:10.140Z,13.60
2022-10-16T04:54:40.955Z,18.80
2022-10-16T04:57:11.690Z,17.80
2022-10-16T04:59:42.731Z,18.33
2022-10-16T05:04:44.243Z,18.27
2022-10-16T05:07:15.053Z,17.37
2022-10-16T05:09:46.027Z,24.57
2022-10-16T05:12:16.832Z,20.13
2022-10-16T05:14:47.518Z,21.87
2022-10-16T05:17:18.545Z,19.05
2022-10-16T05:19:49.334Z,20.02
2022-10-16T05:22:19.976Z,20.60
2022-10-16T05:24:50.957Z,20.17
2022-10-16T05:27:24.873Z,19.15
2022-10-16T05:29:56.210Z,19.35
2022-10-16T05:32:27.020Z,19.08
2022-10-16T05:34:57.993Z,21.17
2022-10-16T05:37:28.964Z,19.75
2022-10-16T05:39:59.953Z,22.45
2022-10-16T05:42:30.782Z,25.58
2022-10-16T05:45:01.703Z,22.13
2022-10-16T05:47:32.524Z,23.20
2022-10-16T05:50:03.164Z,21.50
2022-10-16T05:52:35.541Z,21.63
2022-10-16T05:55:06.362Z,20.58
2022-10-16T05:57:37.292Z,21.08
2022-10-16T06:00:08.861Z,21.85
2022-10-16T06:02:45.711Z,23.60
2022-10-16T06:05:16.564Z,20.63
2022-10-16T06:07:47.251Z,21.02
2022-10-16T06:10:18.518Z,20.53
2022-10-16T06:15:19.577Z,21.80
2022-10-16T06:17:50.264Z,22.93
2022-10-16T06:20:20.951Z,21.60
2022-10-16T06:22:51.707Z,22.83
2022-10-16T06:25:22.703Z,21.33
2022-10-16T06:27:53.472Z,21.67
2022-10-16T06:30:24.382Z,28.07
2022-10-16T06:38:00.014Z,21.98
2022-10-16T06:40:30.862Z,21.95
2022-10-16T06:43:02.270Z,20.95
2022-10-16T06:45:33.106Z,23.17
2022-10-16T06:48:03.790Z,19.55
2022-10-16T06:50:34.495Z,20.45
2022-10-16T06:53:06.222Z,20.13
2022-10-16T06:55:37.160Z,20.73
2022-10-16T06:58:07.864Z,21.75
2022-10-16T07:00:38.658Z,20.80
2022-10-16T07:03:11.349Z,22.20
2022-10-16T07:05:46.253Z,26.85
2022-10-16T07:08:17.069Z,23.00
2022-10-16T07:10:47.856Z,20.10
2022-10-16T07:13:18.638Z,21.37
2022-10-16T07:15:49.452Z,23.20
2022-10-16T07:18:20.356Z,21.80
2022-10-16T07:20:51.069Z,21.03
2022-10-16T07:23:23.163Z,22.08
2022-10-16T07:26:02.647Z,23.85
2022-10-16T07:28:33.727Z,21.17
2022-10-16T07:31:10.509Z,37.95
2022-10-16T07:33:42.290Z,44.15
2022-10-16T07:36:16.344Z,41.53
2022-10-16T07:38:48.318Z,51.08
2022-10-16T07:41:22.660Z,41.97
2022-10-16T07:43:55.763Z,34.10
2022-10-16T07:46:27.229Z,41.80
2022-10-16T07:51:29.967Z,28.80
2022-10-16T07:54:00.890Z,24.58
2022-10-16T07:56:31.639Z,25.50
2022-10-16T07:59:02.733Z,25.15
2022-10-16T08:01:33.644Z,19.87
2022-10-16T08:06:42.235Z,19.67
2022-10-16T08:09:13.475Z,21.40
2022-10-16T08:11:44.198Z,17.83
2022-10-16T08:14:15.146Z,20.53
2022-10-16T08:16:46.063Z,19.75
2022-10-16T08:19:16.862Z,23.67
2022-10-16T08:21:50.674Z,19.83
2022-10-16T08:24:21.344Z,20.67
2022-10-16T08:26:52.129Z,20.27
2022-10-16T08:29:22.787Z,20.33
2022-10-16T08:31:53.608Z,20.37
2022-10-16T08:34:24.572Z,21.43
2022-10-16T08:36:58.383Z,20.52
2022-10-16T08:39:29.317Z,21.60
2022-10-16T08:42:08.278Z,20.70
2022-10-16T08:44:39.860Z,22.02
2022-10-16T08:50:06.342Z,24.70
2022-10-16T08:52:40.045Z,19.45
2022-10-16T08:55:21.232Z,21.10
2022-10-16T08:57:52.006Z,21.58
2022-10-16T09:00:23.354Z,24.60
2022-10-16T09:03:03.994Z,21.85
2022-10-16T09:06:01.968Z,21.35
2022-10-16T09:08:38.441Z,23.20
2022-10-16T09:11:18.266Z,21.58
2022-10-16T09:14:06.521Z,22.05
2022-10-16T09:17:04.600Z,23.13
2022-10-16T09:19:43.154Z,27.67
2022-10-16T09:22:22.143Z,22.05
2022-10-16T09:24:53.073Z,22.25
2022-10-16T09:27:25.020Z,25.13
2022-10-16T09:29:59.632Z,23.95
2022-10-16T09:32:32.978Z,21.33
2022-10-16T09:35:04.036Z,23.38
2022-10-16T09:37:35.549Z,22.05
2022-10-16T09:40:07.671Z,22.23
2022-10-16T09:42:41.128Z,22.42
2022-10-16T09:45:26.619Z,22.02
2022-10-16T09:47:57.917Z,24.10
2022-10-16T09:53:10.401Z,23.77
2022-10-16T09:55:51.294Z,24.38
2022-10-16T09:58:22.321Z,27.80
2022-10-16T10:00:56.005Z,24.48
2022-10-16T10:03:38.335Z,24.42
2022-10-16T10:06:44.675Z,26.48
2022-10-16T10:09:46.540Z,27.60
2022-10-16T10:15:11.616Z,28.80
2022-10-16T10:17:56.953Z,27.70
2022-10-16T10:20:42.385Z,25.85
2022-10-16T10:23:39.644Z,27.23
2022-10-16T10:26:22.549Z,30.05
2022-10-16T10:29:26.880Z,26.35
2022-10-16T10:32:29.040Z,26.27
2022-10-16T10:35:22.794Z,25.40
2022-10-16T10:38:02.235Z,25.98
2022-10-16T10:40:51.365Z,26.05
2022-10-16T10:43:52.761Z,23.15
2022-10-16T10:46:43.291Z,25.90
2022-10-16T10:49:30.906Z,22.30
2022-10-16T10:52:01.668Z,25.10
2022-10-16T10:54:50.118Z,24.60
2022-10-16T10:57:32.660Z,22.30
2022-10-16T11:00:40.535Z,21.95
2022-10-16T11:03:31.344Z,24.67
2022-10-16T11:06:01.983Z,26.88
2022-10-16T11:08:35.816Z,23.77
2022-10-16T11:11:13.190Z,22.95
2022-10-16T11:14:01.634Z,27.15
2022-10-16T11:16:53.898Z,25.70
2022-10-16T11:19:46.030Z,27.52
2022-10-16T11:22:34.549Z,26.77
2022-10-16T11:25:20.110Z,29.85
2022-10-16T11:28:07.654Z,30.63
2022-10-16T11:31:08.361Z,32.15
2022-10-16T11:33:57.220Z,29.10
2022-10-16T11:36:52.035Z,30.02
2022-10-16T11:39:32.288Z,28.70
2022-10-16T11:42:05.696Z,29.25
2022-10-16T11:44:54.331Z,32.88
2022-10-16T11:48:00.521Z,36.80
2022-10-16T11:50:46.446Z,29.08
2022-10-16T11:53:39.646Z,30.45
2022-10-16T11:56:10.480Z,30.20
2022-10-16T11:58:45.612Z,30.73
2022-10-16T12:01:42.332Z,34.45
2022-10-16T12:04:19.323Z,31.58
2022-10-16T12:06:55.934Z,33.72
2022-10-16T12:12:51.051Z,34.38
2022-10-16T12:18:36.799Z,29.88
2022-10-16T12:24:03.526Z,31.77
2022-10-16T12:29:46.123Z,30.10
2022-10-16T12:32:47.091Z,30.55
2022-10-16T12:35:34.430Z,28.48
2022-10-16T12:38:24.399Z,34.00
2022-10-16T12:41:11.938Z,31.63
2022-10-16T12:43:46.056Z,29.95
2022-10-16T12:46:16.883Z,31.83
2022-10-16T12:49:06.043Z,31.10
2022-10-16T12:51:37.176Z,33.45
2022-10-16T12:54:17.573Z,37.23
2022-10-16T12:57:25.924Z,30.63
2022-10-16T12:59:56.705Z,30.60
2022-10-16T13:03:07.738Z,30.55
2022-10-16T13:06:15.068Z,29.83
2022-10-16T14:19:10.810Z,26.23
2022-10-16T14:21:44.240Z,33.42
2022-10-16T14:24:28.663Z,24.13
2022-10-16T14:27:00.066Z,26.48
2022-10-16T14:29:35.137Z,24.35
2022-10-16T14:32:08.856Z,22.10
2022-10-16T14:34:43.862Z,22.98
2022-10-16T14:37:31.266Z,21.75
2022-10-16T14:40:02.625Z,23.40
2022-10-16T14:42:34.652Z,23.65
2022-10-16T14:45:05.341Z,22.33
2022-10-16T14:47:36.124Z,21.88
2022-10-16T14:50:07.199Z,22.80
2022-10-16T14:52:37.996Z,21.60
2022-10-16T14:57:54.630Z,22.83
2022-10-16T15:00:30.410Z,21.80
2022-10-16T15:03:04.716Z,21.40
2022-10-16T15:05:55.335Z,20.73
2022-10-16T15:08:32.911Z,21.85
2022-10-16T15:11:09.905Z,22.15
2022-10-16T15:16:32.455Z,24.20
2022-10-16T15:19:05.954Z,21.38
2022-10-16T15:21:43.058Z,21.27
2022-10-16T15:27:03.658Z,22.02
2022-10-16T15:32:17.725Z,19.77
2022-10-16T15:34:48.462Z,20.55
2022-10-16T15:37:19.316Z,18.43
2022-10-16T15:39:50.088Z,19.63
2022-10-16T15:42:20.885Z,18.47
2022-10-16T15:44:53.793Z,18.83
2022-10-16T15:47:24.633Z,21.05
2022-10-16T15:49:55.439Z,20.23
2022-10-16T15:52:26.554Z,18.47
2022-10-16T15:57:28.303Z,17.88
2022-10-16T15:59:59.174Z,20.48
2022-10-16T16:02:29.961Z,18.90
2022-10-16T16:05:00.832Z,20.08
2022-10-16T16:07:31.783Z,19.42
2022-10-16T16:10:02.595Z,18.15
2022-10-16T16:12:34.129Z,17.98
2022-10-16T16:15:05.858Z,17.77
2022-10-16T16:17:38.059Z,17.38
2022-10-16T16:20:09.693Z,18.30
2022-10-16T16:22:40.542Z,18.88
2022-10-16T16:25:11.673Z,17.60
2022-10-16T16:27:42.517Z,18.00
2022-10-16T16:30:18.680Z,18.03
2022-10-16T16:32:51.434Z,19.15
2022-10-16T16:35:22.342Z,17.58
2022-10-16T16:37:53.076Z,17.63
2022-10-16T16:40:23.994Z,19.13
2022-10-16T16:42:54.909Z,20.00
2022-10-16T16:45:25.606Z,17.80
2022-10-16T16:47:56.537Z,18.80
2022-10-16T16:50:27.187Z,17.60
2022-10-16T16:52:58.000Z,16.87
2022-10-16T16:55:28.731Z,17.40
2022-10-16T16:58:00.626Z,19.93
2022-10-16T17:00:31.442Z,19.20
2022-10-16T17:03:02.218Z,17.67
2022-10-16T17:05:32.899Z,18.00
2022-10-16T17:08:03.626Z,18.47
2022-10-16T17:10:34.337Z,20.13
2022-10-16T17:13:04.884Z,19.77
2022-10-16T17:15:35.702Z,18.63
2022-10-16T17:18:06.581Z,18.35
2022-10-16T17:20:39.863Z,18.73
2022-10-16T17:23:11.345Z,18.08
2022-10-16T17:25:43.449Z,17.65
2022-10-16T17:28:16.079Z,18.42
2022-10-16T17:30:47.754Z,17.83
2022-10-16T17:33:18.698Z,17.92
2022-10-16T17:35:50.737Z,16.75
2022-10-16T17:38:21.358Z,17.77
2022-10-16T17:40:52.079Z,19.10
2022-10-16T17:43:22.801Z,17.20
2022-10-16T17:45:53.574Z,17.33
2022-10-16T17:48:24.492Z,18.53
2022-10-16T17:50:55.291Z,17.17
2022-10-16T17:53:25.948Z,18.17
2022-10-16T17:56:02.035Z,16.67
2022-10-16T17:58:32.716Z,18.85
2022-10-16T18:01:03.457Z,17.70
2022-10-16T18:03:34.281Z,17.70
2022-10-16T18:06:05.137Z,17.48
2022-10-16T18:08:39.335Z,18.40
2022-10-16T18:11:10.193Z,19.80
2022-10-16T18:13:41.193Z,18.07
2022-10-16T18:16:15.748Z,20.20
2022-10-16T18:18:50.739Z,20.30
2022-10-16T18:21:23.203Z,18.65
2022-10-16T18:23:53.940Z,16.52
2022-10-16T18:26:26.176Z,17.50
2022-10-16T18:28:59.962Z,18.35
2022-10-16T18:31:30.984Z,17.45
2022-10-16T18:34:01.801Z,17.38
2022-10-16T18:36:35.867Z,17.75
2022-10-16T18:39:13.990Z,16.75
2022-10-16T18:41:50.194Z,17.70
2022-10-16T18:46:59.863Z,16.90
2022-10-16T18:49:32.398Z,17.15
2022-10-16T18:52:05.781Z,18.27
2022-10-16T18:54:37.657Z,17.50
2022-10-16T18:57:08.477Z,18.92
2022-10-16T18:59:39.243Z,17.80
2022-10-16T19:02:10.382Z,18.15
2022-10-16T19:04:41.342Z,19.35
2022-10-16T19:07:12.702Z,18.10
2022-10-16T19:09:43.420Z,17.38
2022-10-16T19:12:14.205Z,18.50
2022-10-16T19:14:45.072Z,18.37
2022-10-16T19:17:15.873Z,19.58
2022-10-16T19:19:46.609Z,18.20
2022-10-16T19:22:30.545Z,17.05
2022-10-16T19:25:01.498Z,18.67
2022-10-16T19:27:32.455Z,18.57
2022-10-16T19:30:03.242Z,19.85
2022-10-16T19:32:35.867Z,18.48
2022-10-16T19:35:07.018Z,18.42
2022-10-16T19:37:39.034Z,18.10
2022-10-16T19:40:10.503Z,19.40
2022-10-16T19:45:17.238Z,18.30
2022-10-16T19:47:48.575Z,19.77
2022-10-16T19:50:21.813Z,18.42
2022-10-16T19:52:52.583Z,17.83
2022-10-16T19:55:24.283Z,18.87
2022-10-16T19:57:55.277Z,18.15
2022-10-16T20:00:26.144Z,17.80
2022-10-16T20:02:56.981Z,19.70
2022-10-16T20:05:27.941Z,19.30
2022-10-16T20:07:58.841Z,17.70
2022-10-16T20:10:29.885Z,17.70
2022-10-16T20:13:00.672Z,17.90
2022-10-16T20:15:31.660Z,18.98
2022-10-16T20:18:02.474Z,18.45
2022-10-16T20:20:33.002Z,17.23
2022-10-16T20:23:04.475Z,17.10
2022-10-16T20:25:39.279Z,18.30
2022-10-16T20:28:11.579Z,18.13
2022-10-16T20:30:45.347Z,16.27
2022-10-16T20:33:16.472Z,16.85
2022-10-16T20:35:49.955Z,18.23
2022-10-16T20:38:21.890Z,18.15
2022-10-16T20:40:52.663Z,17.38
2022-10-16T20:43:23.400Z,18.33
2022-10-16T20:46:03.556Z,17.63
2022-10-16T20:48:35.087Z,17.25
2022-10-16T20:53:48.185Z,17.42
2022-10-16T20:56:20.134Z,16.75
2022-10-16T20:58:50.936Z,16.92
2022-10-16T21:01:25.337Z,17.13
2022-10-16T21:04:02.313Z,18.88
2022-10-16T21:06:35.388Z,17.88
2022-10-16T21:09:06.829Z,17.38
2022-10-16T21:14:11.058Z,18.02
2022-10-16T21:16:41.831Z,17.35
2022-10-16T21:19:12.656Z,20.00
2022-10-16T21:21:43.385Z,17.50
2022-10-16T21:24:16.624Z,23.43
2022-10-16T21:26:48.496Z,19.33
2022-10-16T21:29:19.526Z,18.17
2022-10-16T21:31:50.337Z,17.55
2022-10-16T21:34:21.090Z,16.88
2022-10-16T21:36:52.032Z,16.90
2022-10-16T21:39:23.749Z,17.10
2022-10-16T21:41:54.724Z,17.45
2022-10-16T21:44:26.176Z,18.23
2022-10-16T21:49:27.901Z,18.20
2022-10-16T21:54:28.796Z,18.38
2022-10-16T21:56:59.759Z,19.93
2022-10-16T21:59:30.462Z,19.42
2022-10-16T22:02:01.957Z,17.77
2022-10-16T22:04:33.371Z,21.30
2022-10-16T22:09:34.546Z,18.52
2022-10-16T22:12:05.098Z,19.70
2022-10-16T22:14:36.085Z,20.27
2022-10-16T22:17:06.931Z,17.85
2022-10-16T22:19:37.726Z,18.97
2022-10-16T22:22:08.741Z,19.60
2022-10-16T22:24:40.346Z,19.43
2022-10-16T22:27:11.137Z,18.55
2022-10-16T22:29:41.716Z,23.73
2022-10-16T22:32:12.552Z,20.07
2022-10-16T22:34:43.941Z,21.95
2022-10-16T22:37:14.907Z,21.80
2022-10-16T22:39:45.720Z,19.98
2022-10-16T22:42:16.490Z,25.75
2022-10-16T22:44:47.572Z,21.17
2022-10-16T22:47:18.402Z,21.98
2022-10-16T22:49:49.123Z,19.77
2022-10-16T22:52:19.938Z,23.30
2022-10-16T22:54:51.366Z,18.77
2022-10-16T22:59:53.083Z,18.42
2022-10-16T23:02:24.408Z,18.88
2022-10-16T23:05:32.232Z,20.35
2022-10-16T23:08:03.403Z,21.43
2022-10-16T23:10:34.185Z,23.80
2022-10-16T23:13:04.883Z,19.77
2022-10-16T23:15:35.599Z,19.83
2022-10-16T23:18:06.257Z,22.47
2022-10-16T23:20:37.160Z,21.30
2022-10-16T23:23:07.878Z,20.17
2022-10-16T23:25:39.548Z,18.93
2022-10-16T23:28:10.290Z,18.30
2022-10-16T23:30:42.024Z,19.33
2022-10-16T23:33:12.709Z,21.05
2022-10-16T23:35:44.141Z,21.77
2022-10-16T23:38:14.974Z,19.08
2022-10-16T23:40:45.671Z,19.37
2022-10-16T23:43:16.473Z,20.17
2022-10-16T23:45:47.316Z,24.90
2022-10-16T23:48:18.353Z,19.23
2022-10-16T23:50:49.261Z,19.58
2022-10-16T23:53:20.436Z,19.55
2022-10-16T23:55:51.251Z,19.58
2022-10-16T23:58:22.322Z,18.10
